Time;durP1;ratioP1;P1;durP2;ratioP2;P2;SDS_P1;SDS_P2;PMS_P1;PMS_P2;Temp;Humidity;BMP_temperature;BMP_pressure;BME280_temperature;BME280_humidity;BME280_pressure;Samples;Min_cycle;Max_cycle;Signal;HPM_P1;HPM_P2
2022/01/29 00:01:57;;;;;;;37.72;25.73;;;;;;;4.99;100.00;102003.94;5006903;28;20493;-60
2022/01/29 00:04:22;;;;;;;38.85;25.00;;;;;;;5.00;100.00;102000.44;5003927;28;20029;-60
2022/01/29 00:06:48;;;;;;;37.00;24.63;;;;;;;5.00;100.00;102000.44;5007341;28;20380;-59
2022/01/29 00:09:15;;;;;;;39.72;26.83;;;;;;;4.92;100.00;101983.97;5004388;28;20037;-59
2022/01/29 00:11:44;;;;;;;40.58;25.17;;;;;;;4.99;100.00;101987.44;5006364;28;20061;-60
2022/01/29 00:14:09;;;;;;;42.58;26.35;;;;;;;4.98;100.00;101970.94;5006810;28;20415;-59
2022/01/29 00:16:35;;;;;;;39.03;24.27;;;;;;;5.05;100.00;101971.78;5006868;28;20030;-59
2022/01/29 00:19:01;;;;;;;41.97;25.40;;;;;;;5.05;100.00;101971.78;5006252;28;20112;-59
2022/01/29 00:21:26;;;;;;;37.60;23.67;;;;;;;5.10;100.00;101955.28;5005240;28;20502;-60
2022/01/29 00:23:52;;;;;;;37.30;24.48;;;;;;;5.08;100.00;101946.59;5006242;28;20026;-60
2022/01/29 00:26:21;;;;;;;46.30;24.00;;;;;;;5.07;100.00;101946.59;5000180;28;20368;-60
2022/01/29 00:28:46;;;;;;;32.42;22.38;;;;;;;5.08;100.00;101949.22;5005251;28;20049;-60
2022/01/29 00:31:11;;;;;;;36.47;22.77;;;;;;;5.07;100.00;101950.06;5003226;28;20037;-60
2022/01/29 00:33:38;;;;;;;33.28;22.23;;;;;;;5.05;100.00;101949.22;5005570;28;20553;-60
2022/01/29 00:36:04;;;;;;;41.72;24.27;;;;;;;5.06;100.00;101937.06;5008865;28;20128;-60
2022/01/29 00:38:30;;;;;;;36.67;22.67;;;;;;;4.85;100.00;101909.34;5009946;28;20034;-60
2022/01/29 00:40:55;;;;;;;30.10;21.58;;;;;;;5.06;100.00;101939.69;5009571;28;20088;-60
2022/01/29 00:43:20;;;;;;;32.78;21.35;;;;;;;5.02;100.00;101938.81;5008390;28;20038;-60
2022/01/29 00:45:46;;;;;;;40.30;22.13;;;;;;;5.06;100.00;101948.38;5008631;28;20137;-60
2022/01/29 00:48:11;;;;;;;28.05;20.90;;;;;;;5.06;100.00;101953.56;5009142;28;20041;-60
2022/01/29 00:50:37;;;;;;;32.60;21.70;;;;;;;5.09;100.00;101943.13;5009277;28;20154;-60
2022/01/29 00:53:02;;;;;;;34.22;20.75;;;;;;;5.10;100.00;101970.06;5009609;28;20034;-60
2022/01/29 00:55:28;;;;;;;29.30;21.10;;;;;;;5.08;100.00;101956.16;5008653;28;20034;-60
2022/01/29 00:57:53;;;;;;;31.35;21.67;;;;;;;5.09;100.00;101943.13;5008014;28;20488;-60
2022/01/29 01:00:19;;;;;;;30.17;20.77;;;;;;;5.12;100.00;101932.72;5007680;28;20049;-60
2022/01/29 01:02:44;;;;;;;37.95;21.58;;;;;;;5.13;100.00;101939.66;4998228;28;20484;-60
2022/01/29 01:05:10;;;;;;;39.92;20.15;;;;;;;5.10;100.00;101931.81;5007796;28;20083;-60
2022/01/29 01:07:36;;;;;;;28.48;20.27;;;;;;;5.09;100.00;101922.31;5009280;28;20038;-60
2022/01/29 01:10:03;;;;;;;28.17;18.40;;;;;;;5.08;100.00;101925.78;5009024;28;20041;-60
2022/01/29 01:12:29;;;;;;;31.15;19.95;;;;;;;5.10;100.00;101918.81;5006610;28;20095;-60
2022/01/29 01:14:54;;;;;;;29.35;19.52;;;;;;;4.99;100.00;101898.88;5009019;28;20041;-60
2022/01/29 01:17:19;;;;;;;30.15;18.38;;;;;;;5.12;100.00;101922.28;5009669;28;20073;-60
2022/01/29 01:19:46;;;;;;;29.15;19.63;;;;;;;5.10;100.00;101908.38;5008845;28;20026;-60
2022/01/29 01:22:14;;;;;;;25.55;18.08;;;;;;;5.09;100.00;101908.41;5008014;28;20030;-60
2022/01/29 01:24:39;;;;;;;26.48;17.73;;;;;;;5.08;100.00;101904.94;5008186;28;20395;-60
2022/01/29 01:27:05;;;;;;;28.15;18.33;;;;;;;5.10;100.00;101913.59;5009756;28;20061;-60
2022/01/29 01:29:30;;;;;;;24.58;17.80;;;;;;;5.08;100.00;101914.47;5009236;28;20541;-60
2022/01/29 01:31:55;;;;;;;29.15;18.05;;;;;;;5.04;100.00;101912.75;5008778;28;20033;-60
2022/01/29 01:34:22;;;;;;;26.17;17.30;;;;;;;5.01;100.00;101910.16;5010047;28;20109;-60
2022/01/29 01:36:56;;;;;;;27.15;17.30;;;;;;;5.01;100.00;101904.94;5010166;28;20034;-60
2022/01/29 01:39:27;;;;;;;25.05;17.83;;;;;;;4.93;100.00;101893.72;5010521;28;20109;-60
2022/01/29 01:41:57;;;;;;;30.08;19.50;;;;;;;4.91;100.00;101895.44;5009863;28;20044;-60
2022/01/29 01:44:23;;;;;;;26.98;19.20;;;;;;;4.89;100.00;101894.59;5008678;28;20034;-60
2022/01/29 01:46:48;;;;;;;25.65;18.65;;;;;;;4.84;100.00;101889.38;5009395;28;20691;-60
2022/01/29 01:49:15;;;;;;;33.50;20.85;;;;;;;4.83;100.00;101877.25;5004487;28;20151;-60
2022/01/29 01:51:42;;;;;;;32.30;18.65;;;;;;;4.75;100.00;101871.19;5007582;28;20064;-60
2022/01/29 01:54:07;;;;;;;28.48;20.60;;;;;;;4.75;100.00;101867.72;5008571;28;20033;-60
2022/01/29 01:56:33;;;;;;;33.45;21.75;;;;;;;4.71;100.00;101852.97;5007927;28;20524;-60
2022/01/29 01:58:58;;;;;;;32.63;21.25;;;;;;;4.67;100.00;101841.69;5008918;28;20488;-60
2022/01/29 02:01:24;;;;;;;34.28;22.10;;;;;;;4.66;100.00;101842.59;5009969;28;20400;-60
2022/01/29 02:03:49;;;;;;;39.47;22.73;;;;;;;4.63;100.00;101832.16;5008641;28;20069;-61
2022/01/29 02:06:15;;;;;;;36.05;22.45;;;;;;;4.66;100.00;101834.78;5008196;28;20486;-60
2022/01/29 02:08:41;;;;;;;33.88;21.90;;;;;;;4.63;100.00;101838.22;5007378;28;20026;-60
2022/01/29 02:11:08;;;;;;;36.80;23.80;;;;;;;4.62;100.00;101836.50;5007548;28;20119;-60
2022/01/29 02:13:33;;;;;;;33.83;22.75;;;;;;;4.62;100.00;101820.03;5007885;28;20085;-60
2022/01/29 02:16:01;;;;;;;38.72;23.38;;;;;;;4.60;100.00;101826.97;5006309;28;20795;-60
2022/01/29 02:18:26;;;;;;;34.65;23.85;;;;;;;4.61;100.00;101807.88;5006694;28;20128;-60
2022/01/29 02:20:52;;;;;;;32.67;21.77;;;;;;;4.60;100.00;101813.94;5007288;28;20084;-60
2022/01/29 02:23:20;;;;;;;42.10;23.90;;;;;;;4.58;100.00;101795.75;5006924;28;20404;-60
2022/01/29 02:25:47;;;;;;;32.67;23.38;;;;;;;4.60;100.00;101804.41;5007558;28;20038;-59
2022/01/29 02:28:23;;;;;;;39.28;24.35;;;;;;;4.59;100.00;101801.81;5007591;28;20479;-60
2022/01/29 02:31:00;;;;;;;45.30;23.90;;;;;;;4.58;100.00;101792.28;5007852;28;20045;-60
2022/01/29 02:33:26;;;;;;;37.28;23.38;;;;;;;4.61;100.00;101793.13;5008860;28;20080;-60
2022/01/29 02:35:53;;;;;;;36.35;23.77;;;;;;;4.61;100.00;101792.25;4998760;28;20056;-60
2022/01/29 02:38:22;;;;;;;31.60;23.35;;;;;;;4.60;100.00;101793.13;5006638;28;20034;-60
2022/01/29 02:40:54;;;;;;;41.28;22.98;;;;;;;4.61;100.00;101776.63;5007092;28;20034;-59
2022/01/29 02:43:27;;;;;;;33.47;22.27;;;;;;;4.61;100.00;101774.91;5007041;28;20037;-60
2022/01/29 02:45:53;;;;;;;35.28;23.45;;;;;;;4.61;100.00;101776.63;5007943;28;20041;-59
2022/01/29 02:48:23;;;;;;;35.33;23.13;;;;;;;4.60;100.00;101772.28;5008448;28;20076;-60
2022/01/29 02:50:49;;;;;;;38.00;24.73;;;;;;;4.65;100.00;101775.75;5007211;28;20041;-59
2022/01/29 02:53:14;;;;;;;38.97;24.30;;;;;;;4.62;100.00;101781.84;5007031;28;20030;-59
2022/01/29 02:55:40;;;;;;;33.50;23.73;;;;;;;4.66;100.00;101780.09;5007389;28;20033;-59
2022/01/29 02:58:05;;;;;;;47.70;28.25;;;;;;;4.67;100.00;101774.00;5007001;28;20749;-60
2022/01/29 03:00:31;;;;;;;35.75;25.50;;;;;;;4.66;100.00;101772.28;5007954;28;20069;-60
2022/01/29 03:02:57;;;;;;;38.28;24.98;;;;;;;4.67;100.00;101770.53;5009640;28;20041;-59
2022/01/29 03:05:22;;;;;;;39.10;25.98;;;;;;;4.66;100.00;101764.50;5006889;28;20065;-60
2022/01/29 03:07:48;;;;;;;39.10;25.55;;;;;;;4.69;100.00;101759.28;5006501;28;20575;-59
2022/01/29 03:10:14;;;;;;;31.73;23.08;;;;;;;4.53;100.00;101728.94;5006658;28;20036;-59
2022/01/29 03:12:40;;;;;;;39.08;25.25;;;;;;;4.73;100.00;101760.97;5006932;28;20038;-60
2022/01/29 03:15:07;;;;;;;44.90;25.63;;;;;;;4.75;100.00;101759.22;5006493;28;20030;-59
2022/01/29 03:17:32;;;;;;;30.67;23.30;;;;;;;4.75;100.00;101751.41;5006377;28;20038;-60
2022/01/29 03:19:57;;;;;;;38.70;25.98;;;;;;;4.76;100.00;101749.69;5006033;28;20123;-59
2022/01/29 03:22:23;;;;;;;36.25;24.08;;;;;;;4.78;100.00;101756.63;5006221;28;20029;-60
2022/01/29 03:24:48;;;;;;;37.50;23.55;;;;;;;4.76;100.00;101750.56;5007169;28;20022;-59
2022/01/29 03:27:13;;;;;;;34.72;24.00;;;;;;;4.80;100.00;101747.03;5006974;28;20033;-60
2022/01/29 03:29:39;;;;;;;30.15;22.08;;;;;;;4.80;100.00;101743.59;5003875;28;20479;-59
2022/01/29 03:32:05;;;;;;;36.75;22.95;;;;;;;4.78;100.00;101748.81;5005210;28;20029;-59
2022/01/29 03:34:30;;;;;;;33.78;22.23;;;;;;;4.73;100.00;101723.69;5005909;28;20038;-59
2022/01/29 03:36:56;;;;;;;35.05;24.27;;;;;;;4.85;100.00;101747.91;5005872;28;20536;-59
2022/01/29 03:39:24;;;;;;;32.45;23.20;;;;;;;4.88;100.00;101728.78;5005753;28;20100;-59
2022/01/29 03:41:49;;;;;;;30.48;22.92;;;;;;;4.87;100.00;101727.91;5004813;28;20076;-59
2022/01/29 03:44:15;;;;;;;29.90;21.90;;;;;;;4.91;100.00;101729.63;5005976;28;20152;-60
2022/01/29 03:46:40;;;;;;;29.42;19.77;;;;;;;4.93;100.00;101724.44;5004760;28;20038;-59
2022/01/29 03:49:06;;;;;;;27.65;20.60;;;;;;;4.93;100.00;101722.69;5007232;28;20124;-59
2022/01/29 03:51:31;;;;;;;29.25;19.15;;;;;;;4.95;100.00;101720.94;5007001;28;20440;-60
2022/01/29 03:53:57;;;;;;;37.55;20.52;;;;;;;4.95;100.00;101714.84;5006454;28;20030;-60
2022/01/29 03:56:22;;;;;;;26.15;18.60;;;;;;;4.71;100.00;101669.00;5006026;28;20506;-60
2022/01/29 03:58:47;;;;;;;28.15;18.65;;;;;;;4.95;100.00;101705.31;5006623;28;20034;-60
2022/01/29 04:01:13;;;;;;;25.02;19.42;;;;;;;4.79;100.00;101688.06;5007962;28;20468;-60
2022/01/29 04:03:38;;;;;;;23.30;17.95;;;;;;;4.98;100.00;101694.88;5008560;28;20030;-60
2022/01/29 04:06:03;;;;;;;26.23;18.27;;;;;;;4.98;100.00;101705.28;5007233;28;20092;-60
2022/01/29 04:08:31;;;;;;;22.92;16.33;;;;;;;5.00;100.00;101702.69;5009988;28;20038;-60
2022/01/29 04:10:56;;;;;;;20.63;15.95;;;;;;;4.99;100.00;101701.81;5010084;28;20038;-60
2022/01/29 04:13:24;;;;;;;29.38;17.63;;;;;;;4.75;100.00;101652.50;5010300;28;20645;-60
2022/01/29 04:15:50;;;;;;;21.98;14.10;;;;;;;4.77;100.00;101636.84;5011244;28;20072;-60
2022/01/29 04:18:15;;;;;;;23.33;14.35;;;;;;;5.04;100.00;101689.63;5010184;28;20064;-60
2022/01/29 04:20:40;;;;;;;20.52;14.77;;;;;;;5.10;100.00;101693.94;5007918;28;20124;-60
2022/01/29 04:23:06;;;;;;;16.05;13.25;;;;;;;5.08;100.00;101693.06;5010148;28;20038;-60
2022/01/29 04:25:32;;;;;;;21.42;14.23;;;;;;;5.10;100.00;101692.16;5010215;28;20068;-61
2022/01/29 04:27:57;;;;;;;19.35;14.38;;;;;;;5.07;100.00;101683.50;5007000;28;20132;-60
2022/01/29 04:30:31;;;;;;;26.23;16.58;;;;;;;5.13;100.00;101696.53;5008525;28;20116;-60
2022/01/29 04:33:04;;;;;;;23.83;14.95;;;;;;;5.13;100.00;101688.69;5008154;28;20455;-60
2022/01/29 04:35:30;;;;;;;26.42;14.65;;;;;;;5.12;100.00;101687.84;5008873;28;20034;-60
2022/01/29 04:37:56;;;;;;;17.42;14.45;;;;;;;5.16;100.00;101688.69;5008169;28;20141;-59
2022/01/29 04:40:21;;;;;;;19.98;14.50;;;;;;;5.17;100.00;101680.00;5008587;28;20049;-59
2022/01/29 04:42:47;;;;;;;17.08;13.73;;;;;;;5.21;100.00;101679.06;5009074;28;20467;-60
2022/01/29 04:45:12;;;;;;;15.15;12.60;;;;;;;5.22;100.00;101682.53;5009214;28;20103;-60
2022/01/29 04:47:38;;;;;;;18.83;13.98;;;;;;;5.21;100.00;101681.69;5010381;28;20038;-59
2022/01/29 04:50:05;;;;;;;17.52;12.82;;;;;;;5.22;100.00;101672.13;5009045;28;20072;-60
2022/01/29 04:52:31;;;;;;;15.88;11.77;;;;;;;5.23;100.00;101679.06;5009207;28;20036;-59
2022/01/29 04:54:56;;;;;;;17.98;12.27;;;;;;;5.25;100.00;101672.09;5009004;28;20034;-60
2022/01/29 04:57:21;;;;;;;18.08;11.93;;;;;;;5.27;100.00;101665.16;5006729;28;20551;-60
2022/01/29 04:59:47;;;;;;;15.95;11.63;;;;;;;5.31;100.00;101670.31;5008537;28;20029;-60
2022/01/29 05:02:12;;;;;;;17.30;12.43;;;;;;;5.35;100.00;101668.53;5009443;28;20032;-60
2022/01/29 05:04:37;;;;;;;17.50;13.15;;;;;;;5.37;100.00;101672.00;5006054;28;20148;-59
2022/01/29 05:07:03;;;;;;;17.95;14.15;;;;;;;5.36;100.00;101663.31;5007746;28;20073;-59
2022/01/29 05:09:28;;;;;;;20.48;14.45;;;;;;;5.38;100.00;101666.78;5008066;28;20368;-60
2022/01/29 05:11:55;;;;;;;19.52;14.65;;;;;;;5.37;100.00;101658.97;5007912;28;20038;-59
2022/01/29 05:14:32;;;;;;;16.05;13.15;;;;;;;5.39;100.00;101659.81;5008444;28;20033;-60
2022/01/29 05:27:53;;;;;;;19.33;15.02;;;;;;;5.52;100.00;101640.59;5006656;28;20095;-59
2022/01/29 05:30:18;;;;;;;22.88;15.27;;;;;;;5.56;100.00;101653.59;5007307;28;20800;-59
2022/01/29 05:32:44;;;;;;;23.98;15.55;;;;;;;5.60;100.00;101644.00;5008011;28;20142;-60
2022/01/29 05:35:09;;;;;;;18.08;14.18;;;;;;;5.48;100.00;101612.81;5007430;28;20104;-59
2022/01/29 05:37:35;;;;;;;22.40;15.73;;;;;;;5.66;100.00;101639.59;5007514;28;20395;-59
2022/01/29 05:40:00;;;;;;;18.90;15.27;;;;;;;5.67;100.00;101643.06;5006619;28;20136;-59
2022/01/29 05:42:26;;;;;;;22.52;16.10;;;;;;;5.71;100.00;101642.16;5006976;28;20036;-60
2022/01/29 05:44:51;;;;;;;18.70;13.85;;;;;;;5.67;100.00;101624.81;5008491;28;20495;-59
2022/01/29 05:47:16;;;;;;;21.30;14.95;;;;;;;5.73;100.00;101629.09;5008552;28;20037;-59
2022/01/29 05:49:42;;;;;;;19.52;13.65;;;;;;;5.78;100.00;101628.13;5007663;28;20601;-59
2022/01/29 05:52:07;;;;;;;16.90;13.32;;;;;;;5.78;100.00;101633.34;5007417;28;20041;-59
2022/01/29 05:54:32;;;;;;;15.82;13.40;;;;;;;5.79;100.00;101629.88;5006760;28;20037;-59
2022/01/29 05:56:58;;;;;;;18.50;13.52;;;;;;;5.83;100.00;101631.56;5004058;28;20436;-59
2022/01/29 05:59:23;;;;;;;17.05;12.48;;;;;;;5.76;100.00;101609.06;5003717;28;20126;-60
2022/01/29 06:01:48;;;;;;;19.20;12.50;;;;;;;5.87;100.00;101635.91;5005858;28;20046;-59
2022/01/29 06:04:14;;;;;;;16.85;13.25;;;;;;;5.87;100.00;101628.09;5005135;28;20036;-60
2022/01/29 06:06:39;;;;;;;17.75;13.15;;;;;;;5.88;100.00;101629.81;5003553;28;20034;-60
2022/01/29 06:09:05;;;;;;;15.35;12.38;;;;;;;5.91;100.00;101628.94;5004880;28;20038;-60
2022/01/29 06:11:32;;;;;;;17.23;12.82;;;;;;;5.92;100.00;101631.50;5005042;28;20037;-59
2022/01/29 06:13:57;;;;;;;17.75;11.93;;;;;;;5.94;100.00;101627.16;5006307;28;20038;-60
2022/01/29 06:16:23;;;;;;;18.88;12.48;;;;;;;5.97;100.00;101614.06;5006321;28;20033;-60
2022/01/29 06:18:48;;;;;;;18.23;12.27;;;;;;;5.85;100.00;101587.22;5005426;28;20113;-60
2022/01/29 06:21:15;;;;;;;15.25;11.18;;;;;;;5.99;100.00;101606.19;5002899;28;20034;-60
2022/01/29 06:23:40;;;;;;;13.63;10.80;;;;;;;5.99;100.00;101609.69;5003749;28;20038;-60
2022/01/29 06:26:09;;;;;;;13.60;11.45;;;;;;;5.98;100.00;101613.16;5005045;28;20033;-60
2022/01/29 06:28:35;;;;;;;14.82;11.90;;;;;;;6.02;100.00;101614.84;5004578;28;20084;-60
2022/01/29 06:31:01;;;;;;;14.45;11.52;;;;;;;6.03;100.00;101614.00;5003620;28;20042;-60
2022/01/29 06:33:26;;;;;;;15.45;12.05;;;;;;;6.04;100.00;101602.69;5005056;28;20683;-59
2022/01/29 06:35:52;;;;;;;16.15;11.90;;;;;;;6.06;100.00;101590.47;5005615;28;20026;-60
2022/01/29 06:38:17;;;;;;;15.05;11.85;;;;;;;6.11;100.00;101609.56;5004733;28;20083;-60
2022/01/29 06:40:44;;;;;;;16.58;12.07;;;;;;;6.11;100.00;101601.72;5009236;28;20029;-60
2022/01/29 06:43:09;;;;;;;17.60;12.00;;;;;;;6.11;100.00;101612.16;4998523;28;20113;-60
2022/01/29 06:45:38;;;;;;;14.65;10.82;;;;;;;6.11;100.00;101603.47;5009165;28;20135;-60
2022/01/29 06:48:04;;;;;;;15.07;11.88;;;;;;;6.04;100.00;101584.41;5009352;28;20030;-60
2022/01/29 06:50:29;;;;;;;14.32;11.07;;;;;;;6.16;100.00;101607.72;5005902;28;20045;-59
2022/01/29 06:52:55;;;;;;;15.18;12.13;;;;;;;6.20;100.00;101599.84;5005532;28;20042;-60
2022/01/29 06:55:20;;;;;;;15.30;12.20;;;;;;;6.23;100.00;101594.59;5005540;28;20026;-60
2022/01/29 06:57:46;;;;;;;16.02;11.77;;;;;;;6.25;100.00;101587.63;5003212;28;20046;-60
2022/01/29 07:00:12;;;;;;;20.05;13.82;;;;;;;6.32;100.00;101581.44;5001372;28;20403;-60
2022/01/29 07:02:37;;;;;;;20.45;13.52;;;;;;;6.33;100.00;101570.09;5003521;28;20038;-60
2022/01/29 07:05:05;;;;;;;17.58;13.15;;;;;;;6.35;100.00;101569.22;5002293;28;20046;-60
2022/01/29 07:07:30;;;;;;;16.17;13.65;;;;;;;6.37;100.00;101580.50;5000515;28;20042;-60
2022/01/29 07:09:55;;;;;;;16.50;12.63;;;;;;;6.38;100.00;101583.97;5002265;28;20037;-60
2022/01/29 07:12:22;;;;;;;21.67;13.95;;;;;;;6.40;100.00;101582.19;5004154;28;20026;-60
2022/01/29 07:14:49;;;;;;;17.35;13.25;;;;;;;6.43;100.00;101580.41;5003214;28;20025;-60
2022/01/29 07:17:17;;;;;;;16.33;12.40;;;;;;;6.37;100.00;101572.66;5000482;28;20053;-60
2022/01/29 07:19:42;;;;;;;18.05;13.15;;;;;;;6.41;100.00;101568.25;4999224;28;20030;-60
2022/01/29 07:22:08;;;;;;;20.58;13.77;;;;;;;6.20;100.00;101521.56;5004964;28;20048;-60
2022/01/29 07:24:34;;;;;;;17.73;13.55;;;;;;;6.52;100.00;101569.81;5004486;28;20096;-60
2022/01/29 07:26:59;;;;;;;15.75;12.63;;;;;;;6.55;100.00;101567.19;5005376;28;20068;-61
2022/01/29 07:29:25;;;;;;;14.05;11.82;;;;;;;6.56;100.00;101568.03;5005673;28;20479;-60
2022/01/29 07:31:53;;;;;;;15.10;11.98;;;;;;;6.57;100.00;101569.75;5009228;28;20047;-60
2022/01/29 07:34:18;;;;;;;14.05;11.57;;;;;;;6.59;100.00;101581.06;5005656;28;20041;-60
2022/01/29 07:36:44;;;;;;;18.88;13.23;;;;;;;6.61;100.00;101566.22;5006213;28;20040;-60
2022/01/29 07:39:09;;;;;;;13.77;12.02;;;;;;;6.65;100.00;101567.91;5003765;28;20136;-58
2022/01/29 07:41:34;;;;;;;16.88;12.98;;;;;;;6.66;100.00;101574.81;4982567;28;20034;-61
2022/01/29 07:44:00;;;;;;;17.13;12.25;;;;;;;6.68;100.00;101568.72;4966991;28;20128;-61
2022/01/29 07:46:25;;;;;;;17.45;12.35;;;;;;;6.73;100.00;101559.91;4967208;28;20132;-61
2022/01/29 07:48:51;;;;;;;13.70;12.18;;;;;;;6.74;100.00;101557.31;4967464;28;20866;-58
2022/01/29 07:51:16;;;;;;;20.75;12.98;;;;;;;6.77;100.00;101548.53;4965680;28;20039;-61
2022/01/29 07:53:41;;;;;;;15.20;12.65;;;;;;;6.80;100.00;101551.09;4966421;28;20045;-60
2022/01/29 07:56:07;;;;;;;22.00;13.32;;;;;;;6.78;100.00;101558.97;4967237;28;20025;-60
2022/01/29 07:58:32;;;;;;;13.23;10.75;;;;;;;6.81;100.00;101564.16;4965294;28;20038;-58
2022/01/29 08:00:57;;;;;;;15.80;12.05;;;;;;;6.86;100.00;101564.94;4967786;28;20089;-61
2022/01/29 08:03:23;;;;;;;16.05;12.75;;;;;;;6.83;100.00;101564.97;4976680;28;20898;-60
2022/01/29 08:05:48;;;;;;;17.55;12.65;;;;;;;6.86;100.00;101557.09;5015309;28;20042;-58
2022/01/29 08:08:14;;;;;;;15.70;11.57;;;;;;;6.90;100.00;101548.31;5011409;28;20551;-60
2022/01/29 08:10:39;;;;;;;14.75;11.27;;;;;;;6.95;100.00;101559.56;5009806;28;20065;-61
2022/01/29 08:13:04;;;;;;;15.23;12.05;;;;;;;6.97;100.00;101551.69;5011329;28;20530;-60
2022/01/29 08:15:30;;;;;;;14.88;11.65;;;;;;;7.03;100.00;101547.22;5010290;28;20041;-61
2022/01/29 08:17:55;;;;;;;13.77;10.73;;;;;;;7.05;100.00;101555.91;5010495;28;20045;-60
2022/01/29 08:20:20;;;;;;;16.50;11.13;;;;;;;7.09;100.00;101539.31;5009673;28;20121;-60
2022/01/29 08:22:47;;;;;;;16.08;11.77;;;;;;;6.95;100.00;101525.59;5011879;28;20026;-60
2022/01/29 08:25:13;;;;;;;13.40;10.13;;;;;;;7.17;100.00;101549.59;5011594;28;20072;-60
2022/01/29 08:27:38;;;;;;;14.38;10.23;;;;;;;7.17;100.00;101547.84;5011122;28;20202;-60
2022/01/29 08:30:04;;;;;;;16.20;11.27;;;;;;;7.26;100.00;101540.75;5010904;28;20479;-58
2022/01/29 08:32:30;;;;;;;12.85;10.85;;;;;;;7.22;100.00;101513.78;5007420;28;20061;-61
2022/01/29 08:34:55;;;;;;;13.43;10.85;;;;;;;7.37;100.00;101528.34;5011758;28;20491;-60
2022/01/29 08:37:20;;;;;;;16.35;11.65;;;;;;;7.40;100.00;101544.81;5007936;28;20030;-58
2022/01/29 08:39:46;;;;;;;16.90;12.05;;;;;;;7.42;100.00;101547.41;5010404;28;20056;-58
2022/01/29 08:42:11;;;;;;;14.48;10.95;;;;;;;7.49;100.00;101535.94;5011785;28;20122;-58
2022/01/29 08:44:37;;;;;;;18.92;12.82;;;;;;;7.49;100.00;101533.34;5005605;28;20116;-58
2022/01/29 08:47:03;;;;;;;18.40;11.20;;;;;;;7.49;100.00;101533.34;5004138;28;20041;-58
2022/01/29 08:49:28;;;;;;;16.58;11.00;;;;;;;7.48;100.00;101526.38;5011554;28;20045;-61
2022/01/29 08:51:53;;;;;;;14.13;10.93;;;;;;;7.50;100.00;101540.28;5010481;28;20061;-60
2022/01/29 08:54:19;;;;;;;15.52;11.05;;;;;;;7.52;100.00;101522.81;5012361;28;20484;-58
2022/01/29 08:56:44;;;;;;;13.07;10.43;;;;;;;7.50;100.00;101522.00;5015591;28;20029;-60
2022/01/29 08:59:10;;;;;;;13.93;10.55;;;;;;;7.50;100.00;101524.59;5015690;28;20038;-59
2022/01/29 09:01:36;;;;;;;23.88;11.55;;;;;;;7.52;100.00;101522.81;5009818;28;20113;-59
2022/01/29 09:04:02;;;;;;;15.27;11.55;;;;;;;7.53;100.00;101512.34;5007740;28;20034;-59
2022/01/29 09:06:27;;;;;;;14.07;10.50;;;;;;;7.54;100.00;101505.31;5014239;28;20026;-59
2022/01/29 09:08:52;;;;;;;15.45;11.55;;;;;;;7.56;100.00;101506.16;5015401;28;20130;-59
2022/01/29 09:11:19;;;;;;;14.88;10.40;;;;;;;7.60;100.00;101520.91;5009177;28;20084;-59
2022/01/29 09:13:45;;;;;;;16.83;11.73;;;;;;;7.64;100.00;101512.09;5015830;28;20033;-59
2022/01/29 09:16:10;;;;;;;11.55;9.07;;;;;;;7.67;100.00;101517.28;5015922;28;20025;-59
2022/01/29 09:18:36;;;;;;;11.68;10.25;;;;;;;7.75;100.00;101507.50;5015383;28;20025;-59
2022/01/29 09:21:01;;;;;;;17.73;9.73;;;;;;;7.82;100.00;101506.50;5014954;28;20104;-59
2022/01/29 09:23:27;;;;;;;14.93;11.27;;;;;;;7.92;100.00;101505.41;5014409;28;20061;-59
2022/01/29 09:25:52;;;;;;;11.73;8.40;;;;;;;7.98;100.00;101496.53;5014896;28;20468;-59
2022/01/29 09:28:17;;;;;;;12.13;8.50;;;;;;;7.99;100.00;101483.44;5015397;28;20129;-59
2022/01/29 09:30:44;;;;;;;11.25;8.60;;;;;;;7.99;100.00;101488.69;5015188;28;20044;-59
2022/01/29 09:33:10;;;;;;;8.40;7.43;;;;;;;7.98;100.00;101476.47;5005753;28;20033;-59
2022/01/29 09:35:38;;;;;;;13.80;9.00;;;;;;;7.99;100.00;101472.97;5009283;28;20362;-59
2022/01/29 09:38:04;;;;;;;9.32;7.35;;;;;;;8.05;100.00;101478.06;5009981;28;20076;-59
2022/01/29 09:40:29;;;;;;;11.48;8.20;;;;;;;8.10;100.00;101486.69;5012647;28;20439;-59
2022/01/29 09:42:56;;;;;;;10.48;7.72;;;;;;;8.15;100.00;101487.44;5007710;28;20026;-59
2022/01/29 09:45:22;;;;;;;13.93;7.63;;;;;;;8.19;100.00;101489.09;5008663;28;20029;-59
2022/01/29 09:47:48;;;;;;;8.10;6.65;;;;;;;8.16;100.00;101488.28;5014927;28;20037;-59
2022/01/29 09:50:15;;;;;;;9.95;5.93;;;;;;;8.11;100.00;101488.38;5014816;28;20108;-59
2022/01/29 09:52:41;;;;;;;8.10;6.22;;;;;;;8.08;100.00;101488.47;5014644;28;20029;-60
2022/01/29 09:55:08;;;;;;;7.90;6.00;;;;;;;8.08;100.00;101504.16;5014204;28;20026;-60
2022/01/29 09:57:33;;;;;;;8.25;6.15;;;;;;;8.05;100.00;101501.63;5014549;28;20479;-60
2022/01/29 09:59:59;;;;;;;7.50;5.55;;;;;;;8.06;100.00;101508.59;5007433;28;20022;-60
2022/01/29 10:02:25;;;;;;;7.57;5.50;;;;;;;8.06;100.00;101505.97;4998192;28;20427;-60
2022/01/29 10:04:52;;;;;;;7.57;6.10;;;;;;;8.02;100.00;101519.13;4999863;28;20491;-60
2022/01/29 10:07:20;;;;;;;14.77;7.93;;;;;;;7.93;100.00;101504.50;5014120;28;20438;-60
2022/01/29 10:09:46;;;;;;;9.73;7.35;;;;;;;7.85;100.00;101516.88;5014488;28;20476;-60
2022/01/29 10:12:32;;;;;;;8.05;5.40;;;;;;;7.77;100.00;101508.34;5014598;28;20112;-60
2022/01/29 10:14:59;;;;;;;6.43;4.25;;;;;;;7.72;100.00;101505.81;5014743;28;20080;-60
2022/01/29 10:17:45;;;;;;;8.02;4.75;;;;;;;7.71;100.00;101500.59;5014111;28;20084;-60
2022/01/29 10:20:13;;;;;;;7.80;4.97;;;;;;;7.70;100.00;101496.28;5014276;28;20072;-60
2022/01/29 10:22:39;;;;;;;4.93;4.10;;;;;;;7.70;100.00;101497.13;5014567;28;20511;-60
2022/01/29 10:25:14;;;;;;;6.43;5.13;;;;;;;7.74;100.00;101492.69;5014431;28;20030;-60
2022/01/29 10:28:12;;;;;;;10.35;4.00;;;;;;;7.77;100.00;101497.03;5013282;28;20042;-60
2022/01/29 10:30:55;;;;;;;8.65;6.05;;;;;;;7.74;100.00;101503.16;5011557;28;21145;-60
2022/01/29 10:33:35;;;;;;;4.82;3.65;;;;;;;7.73;100.00;101504.06;5014254;28;20046;-60
2022/01/29 10:36:06;;;;;;;8.38;5.53;;;;;;;7.73;100.00;101509.31;5012373;28;20033;-60
2022/01/29 10:38:40;;;;;;;5.78;4.55;;;;;;;7.75;100.00;101504.91;5014007;28;20026;-60
2022/01/29 10:41:22;;;;;;;5.63;3.92;;;;;;;7.77;100.00;101490.03;5013416;28;20088;-60
2022/01/29 10:44:14;;;;;;;6.45;4.38;;;;;;;7.78;100.00;101489.13;5014106;28;20063;-60
2022/01/29 10:46:45;;;;;;;6.40;5.00;;;;;;;7.77;100.00;101492.66;5013986;28;20046;-60
2022/01/29 10:49:31;;;;;;;5.90;3.92;;;;;;;7.46;100.00;101449.72;5013753;28;20034;-60
2022/01/29 10:52:10;;;;;;;9.25;4.50;;;;;;;7.77;100.00;101487.44;5014004;28;20030;-60
2022/01/29 10:54:37;;;;;;;7.18;4.63;;;;;;;7.81;100.00;101477.75;5013466;28;20053;-60
2022/01/29 10:57:06;;;;;;;6.93;5.15;;;;;;;7.83;100.00;101474.22;5013628;28;20080;-60
2022/01/29 10:59:34;;;;;;;5.50;4.47;;;;;;;7.85;100.00;101461.06;5011200;28;20037;-60
2022/01/29 11:02:05;;;;;;;5.85;4.72;;;;;;;7.91;100.00;101456.56;5012346;28;20060;-60
2022/01/29 11:04:32;;;;;;;6.18;4.57;;;;;;;8.01;100.00;101454.63;5013367;28;20029;-60
2022/01/29 11:07:01;;;;;;;7.80;5.25;;;;;;;8.10;100.00;101439.56;5013729;28;20052;-60
2022/01/29 11:09:28;;;;;;;7.78;4.97;;;;;;;8.20;100.00;101434.97;5012931;28;20026;-60
2022/01/29 11:11:56;;;;;;;6.68;4.32;;;;;;;8.41;100.00;101428.41;5013692;28;20071;-60
2022/01/29 11:14:22;;;;;;;9.23;5.45;;;;;;;8.49;100.00;101410.72;5012884;28;20025;-60
2022/01/29 11:16:48;;;;;;;5.15;3.95;;;;;;;8.64;100.00;101426.91;5012217;28;20030;-60
2022/01/29 11:19:16;;;;;;;5.80;4.00;;;;;;;8.75;100.00;101418.78;5013317;28;20030;-60
2022/01/29 11:21:42;;;;;;;5.35;4.05;;;;;;;8.86;100.00;101410.59;5013456;28;20026;-60